Time;durP1;ratioP1;P1;durP2;ratioP2;P2;SDS_P1;SDS_P2;PMS_P1;PMS_P2;Temp;Humidity;BMP_temperature;BMP_pressure;BME280_temperature;BME280_humidity;BME280_pressure;Samples;Min_cycle;Max_cycle;Signal;HPM_P1;HPM_P2
2024/01/15 00:00:56;;;;;;;6.27;5.73;;;0.90;61.70;;;;;;5041775;28;20262;-62
2024/01/15 00:03:23;;;;;;;7.07;6.30;;;0.90;61.40;;;;;;5039940;28;20239;-62
2024/01/15 00:05:49;;;;;;;9.90;6.57;;;0.80;61.50;;;;;;5031323;28;20222;-63
2024/01/15 00:08:16;;;;;;;7.03;6.33;;;0.80;61.40;;;;;;5039917;28;20231;-62
2024/01/15 00:10:42;;;;;;;8.83;6.50;;;0.80;61.90;;;;;;5040978;28;20241;-62
2024/01/15 00:13:09;;;;;;;7.43;5.67;;;0.80;61.60;;;;;;5046360;28;20211;-62
2024/01/15 00:15:35;;;;;;;8.03;6.17;;;0.80;61.70;;;;;;5047540;28;20728;-63
2024/01/15 00:18:02;;;;;;;9.07;6.67;;;0.80;61.90;;;;;;5041081;28;20290;-63
2024/01/15 00:20:29;;;;;;;6.87;5.53;;;0.70;62.20;;;;;;5031544;28;20694;-63
2024/01/15 00:22:55;;;;;;;8.97;6.40;;;0.70;62.40;;;;;;5039258;28;20247;-63
2024/01/15 00:25:22;;;;;;;8.50;6.70;;;0.70;62.30;;;;;;5049850;28;20240;-62
2024/01/15 00:27:48;;;;;;;7.70;6.80;;;0.60;62.50;;;;;;5049013;28;20230;-63
2024/01/15 00:30:15;;;;;;;8.27;6.10;;;0.70;62.50;;;;;;5045015;28;20225;-63
2024/01/15 00:32:41;;;;;;;11.43;6.67;;;0.70;62.80;;;;;;5040790;28;20260;-62
2024/01/15 00:35:08;;;;;;;7.40;6.50;;;0.60;62.60;;;;;;5046036;28;20264;-62
2024/01/15 00:37:34;;;;;;;9.07;6.67;;;0.60;63.00;;;;;;5041163;28;20234;-62
2024/01/15 00:40:01;;;;;;;8.43;6.33;;;0.70;62.60;;;;;;5044961;28;20225;-63
2024/01/15 00:42:28;;;;;;;8.83;6.63;;;0.60;62.70;;;;;;5042311;28;20245;-60
2024/01/15 00:44:55;;;;;;;7.10;6.33;;;0.60;62.40;;;;;;5042273;28;20272;-62
2024/01/15 00:47:21;;;;;;;9.47;7.07;;;0.70;61.80;;;;;;5043765;28;20569;-63
2024/01/15 00:49:48;;;;;;;7.83;6.53;;;0.70;61.40;;;;;;5042555;28;20449;-63
2024/01/15 00:52:14;;;;;;;8.53;6.67;;;0.70;61.50;;;;;;5050712;28;20238;-62
2024/01/15 00:54:41;;;;;;;8.27;6.47;;;0.70;60.90;;;;;;5039735;28;20207;-61
2024/01/15 00:57:08;;;;;;;9.23;6.80;;;0.70;61.10;;;;;;5043621;28;20269;-62
2024/01/15 00:59:34;;;;;;;7.83;6.40;;;0.70;60.20;;;;;;5049110;28;20202;-62
2024/01/15 01:02:02;;;;;;;9.90;7.70;;;0.60;60.40;;;;;;5047902;28;20748;-62
2024/01/15 01:04:28;;;;;;;11.60;8.80;;;0.30;60.10;;;;;;5054024;28;20218;-63
2024/01/15 01:06:55;;;;;;;13.50;8.90;;;0.20;59.40;;;;;;5040410;28;20682;-61
2024/01/15 01:09:21;;;;;;;11.03;8.83;;;0.20;59.00;;;;;;5058098;28;20243;-62
2024/01/15 01:11:48;;;;;;;11.53;9.00;;;0.10;58.90;;;;;;5046327;28;20628;-62
2024/01/15 01:14:14;;;;;;;11.87;9.70;;;0.00;58.40;;;;;;5043214;28;20234;-62
2024/01/15 01:16:41;;;;;;;14.97;9.57;;;0.10;57.20;;;;;;5035655;28;20269;-62
2024/01/15 01:19:07;;;;;;;12.43;9.27;;;0.00;57.20;;;;;;5053790;28;20244;-62
2024/01/15 01:21:34;;;;;;;11.70;9.47;;;-0.10;56.10;;;;;;5040684;28;20646;-62
2024/01/15 01:24:00;;;;;;;13.30;9.53;;;-0.10;56.20;;;;;;5046181;28;20243;-62
2024/01/15 01:26:27;;;;;;;12.97;9.23;;;-0.10;55.70;;;;;;5045882;28;20218;-60
2024/01/15 01:28:53;;;;;;;11.67;8.97;;;-0.30;55.80;;;;;;5039935;28;20238;-62
2024/01/15 01:31:20;;;;;;;12.47;9.10;;;-0.20;55.50;;;;;;5046687;28;20202;-62
2024/01/15 01:33:46;;;;;;;11.90;9.00;;;-0.20;55.60;;;;;;5044996;28;20261;-62
2024/01/15 01:36:13;;;;;;;10.87;8.57;;;-0.20;55.90;;;;;;5046752;28;20222;-62
2024/01/15 01:38:39;;;;;;;13.07;8.47;;;-0.20;55.40;;;;;;5041099;28;20242;-62
2024/01/15 01:41:06;;;;;;;11.87;8.33;;;-0.20;54.70;;;;;;5046746;28;20268;-62
2024/01/15 01:43:32;;;;;;;10.60;8.43;;;-0.20;54.80;;;;;;5044514;28;20294;-62
2024/01/15 01:45:59;;;;;;;10.30;8.23;;;-0.20;54.70;;;;;;5041483;28;20268;-62
2024/01/15 01:48:26;;;;;;;11.07;8.37;;;-0.20;54.20;;;;;;5042722;28;20241;-62
2024/01/15 01:50:52;;;;;;;9.67;8.27;;;-0.30;54.50;;;;;;5042085;28;20209;-63
2024/01/15 01:53:19;;;;;;;10.63;7.83;;;-0.30;54.30;;;;;;5047497;28;20218;-62
2024/01/15 01:55:45;;;;;;;11.33;7.13;;;-0.30;53.50;;;;;;5039942;28;20258;-62
2024/01/15 01:58:12;;;;;;;9.00;6.83;;;-0.20;52.90;;;;;;5037340;28;20663;-62
2024/01/15 02:00:38;;;;;;;9.23;7.30;;;-0.30;53.00;;;;;;5037329;28;20737;-62
2024/01/15 02:03:05;;;;;;;8.30;7.40;;;-0.30;52.90;;;;;;5043263;28;20244;-62
2024/01/15 02:05:31;;;;;;;8.57;7.53;;;-0.20;53.30;;;;;;5043282;28;20265;-62
2024/01/15 02:07:58;;;;;;;11.73;8.17;;;-0.30;53.10;;;;;;5031762;28;20412;-62
2024/01/15 02:10:24;;;;;;;10.33;7.63;;;-0.30;53.40;;;;;;5049579;28;20241;-62
2024/01/15 02:12:51;;;;;;;11.00;7.90;;;-0.40;53.80;;;;;;5050853;28;20676;-61
2024/01/15 02:15:17;;;;;;;9.27;7.47;;;-0.40;53.80;;;;;;5042281;28;20221;-62
2024/01/15 02:17:44;;;;;;;8.40;7.33;;;-0.30;53.80;;;;;;5043700;28;20708;-62
2024/01/15 02:20:10;;;;;;;8.90;7.47;;;-0.50;53.90;;;;;;5038596;28;20241;-62
2024/01/15 02:22:37;;;;;;;10.50;8.30;;;-0.60;53.40;;;;;;5036634;28;20215;-62
2024/01/15 02:25:03;;;;;;;10.80;7.40;;;-0.50;53.60;;;;;;5036980;28;20272;-63
2024/01/15 02:27:30;;;;;;;11.03;7.77;;;-0.60;53.80;;;;;;5045723;28;20210;-62
2024/01/15 02:29:56;;;;;;;10.73;8.37;;;-0.50;53.60;;;;;;5034687;28;20238;-63
2024/01/15 02:32:23;;;;;;;10.47;8.07;;;-0.50;53.30;;;;;;5048300;28;20642;-62
2024/01/15 02:34:49;;;;;;;9.50;7.00;;;-0.60;53.40;;;;;;5050220;28;20206;-62
2024/01/15 02:37:16;;;;;;;11.17;8.10;;;-0.70;53.60;;;;;;5049328;28;20742;-63
2024/01/15 02:39:42;;;;;;;11.10;8.20;;;-0.60;53.20;;;;;;5043286;28;20661;-63
2024/01/15 02:42:08;;;;;;;12.33;8.87;;;-0.70;53.10;;;;;;5031305;28;20303;-62
2024/01/15 02:44:35;;;;;;;11.30;8.40;;;-0.70;54.10;;;;;;5050579;28;20237;-62
2024/01/15 02:47:02;;;;;;;10.23;7.57;;;-0.80;54.00;;;;;;5044327;28;20667;-63
2024/01/15 02:49:28;;;;;;;9.40;7.87;;;-0.70;53.90;;;;;;5042568;28;20201;-61
2024/01/15 02:51:55;;;;;;;10.30;8.20;;;-0.70;54.00;;;;;;5041441;28;20624;-62
2024/01/15 02:54:21;;;;;;;11.40;8.03;;;-0.70;54.30;;;;;;5043618;28;20268;-62
2024/01/15 02:56:48;;;;;;;10.37;7.80;;;-0.70;53.90;;;;;;5042776;28;20253;-63
2024/01/15 02:59:14;;;;;;;11.20;7.70;;;-0.70;54.40;;;;;;5043567;28;20272;-60
2024/01/15 03:01:41;;;;;;;11.03;8.53;;;-0.60;54.40;;;;;;5051203;28;20265;-62
2024/01/15 03:04:07;;;;;;;10.87;8.47;;;-0.60;54.40;;;;;;5043527;28;20222;-61
2024/01/15 03:06:34;;;;;;;11.03;8.50;;;-0.70;54.40;;;;;;5047045;28;20272;-63
2024/01/15 03:09:00;;;;;;;11.87;9.13;;;-0.80;54.70;;;;;;5041184;28;20263;-63
2024/01/15 03:11:27;;;;;;;13.30;8.40;;;-0.70;55.00;;;;;;5039162;28;20229;-62
2024/01/15 03:13:53;;;;;;;10.87;7.93;;;-0.60;54.80;;;;;;5047316;28;20288;-63
2024/01/15 03:16:20;;;;;;;10.83;7.90;;;-0.50;54.60;;;;;;5043506;28;20268;-63
2024/01/15 03:18:47;;;;;;;9.50;7.87;;;-0.50;54.50;;;;;;5042062;28;20205;-62
2024/01/15 03:21:13;;;;;;;10.63;8.23;;;-0.50;54.50;;;;;;5035952;28;20716;-62
2024/01/15 03:23:40;;;;;;;10.73;8.23;;;-0.50;54.10;;;;;;5043858;28;20206;-62
2024/01/15 03:26:06;;;;;;;11.07;8.03;;;-0.60;54.40;;;;;;5042975;28;20310;-62
2024/01/15 03:28:33;;;;;;;11.10;8.17;;;-0.60;54.40;;;;;;5037830;28;20709;-63
2024/01/15 03:30:59;;;;;;;10.47;8.00;;;-0.50;54.00;;;;;;5036008;28;20259;-62
2024/01/15 03:33:26;;;;;;;9.80;7.53;;;-0.60;53.90;;;;;;5044261;28;20206;-62
2024/01/15 03:35:52;;;;;;;9.87;7.80;;;-0.60;54.00;;;;;;5039551;28;20268;-61
2024/01/15 03:38:19;;;;;;;9.00;7.37;;;-0.70;54.40;;;;;;5041169;28;20210;-62
2024/01/15 03:40:46;;;;;;;9.47;7.13;;;-0.70;54.40;;;;;;5041992;28;20777;-63
2024/01/15 03:43:13;;;;;;;8.50;7.03;;;-0.70;54.20;;;;;;5040441;28;20268;-63
2024/01/15 03:45:39;;;;;;;11.43;7.67;;;-0.60;54.40;;;;;;5036562;28;20253;-62
2024/01/15 03:48:06;;;;;;;9.40;7.40;;;-0.50;54.30;;;;;;5043510;28;20217;-63
2024/01/15 03:50:32;;;;;;;8.33;6.70;;;-0.50;54.00;;;;;;5044180;28;20621;-63
2024/01/15 03:52:59;;;;;;;10.63;7.93;;;-0.60;54.10;;;;;;5043895;28;20347;-62
2024/01/15 03:55:25;;;;;;;9.87;6.83;;;-0.50;53.70;;;;;;5050869;28;20318;-62
2024/01/15 03:57:52;;;;;;;10.30;7.83;;;-0.60;53.90;;;;;;5051243;28;20632;-62
2024/01/15 04:00:18;;;;;;;10.77;7.50;;;-0.60;53.80;;;;;;5038729;28;20231;-63
2024/01/15 04:02:45;;;;;;;9.03;7.23;;;-0.70;53.80;;;;;;5048890;28;20221;-63
2024/01/15 04:05:11;;;;;;;10.47;7.67;;;-0.60;53.70;;;;;;5044425;28;20283;-62
2024/01/15 04:07:38;;;;;;;10.17;7.20;;;-0.70;53.70;;;;;;5037399;28;20310;-62
2024/01/15 04:10:04;;;;;;;12.43;7.70;;;-0.70;54.30;;;;;;5046894;28;20209;-62
2024/01/15 04:12:31;;;;;;;9.90;7.43;;;-0.60;54.30;;;;;;5035564;28;20233;-63
2024/01/15 04:14:57;;;;;;;10.40;6.80;;;-0.70;53.70;;;;;;5034537;28;20233;-61
2024/01/15 04:17:24;;;;;;;10.37;7.93;;;-0.60;53.60;;;;;;5041416;28;20237;-63
2024/01/15 04:19:50;;;;;;;9.13;6.97;;;-0.60;53.60;;;;;;5041333;28;20241;-62
2024/01/15 04:22:17;;;;;;;10.23;7.07;;;-0.60;53.90;;;;;;5040573;28;20307;-63
2024/01/15 04:24:43;;;;;;;9.20;7.07;;;-0.50;53.50;;;;;;5041259;28;20206;-62
2024/01/15 04:27:10;;;;;;;8.43;7.53;;;-0.70;54.20;;;;;;5039995;28;20242;-62
2024/01/15 04:29:36;;;;;;;11.03;8.20;;;-0.60;54.00;;;;;;5041094;28;20249;-61
2024/01/15 04:32:03;;;;;;;8.57;7.17;;;-0.60;54.10;;;;;;5043664;28;20233;-62
2024/01/15 04:34:29;;;;;;;8.97;6.40;;;-0.60;53.90;;;;;;5043305;28;20240;-62
2024/01/15 04:36:56;;;;;;;10.30;7.23;;;-0.70;54.40;;;;;;5040086;28;20222;-63
2024/01/15 04:39:22;;;;;;;10.50;7.17;;;-0.60;54.40;;;;;;5039900;28;20289;-63
2024/01/15 04:41:49;;;;;;;9.20;7.67;;;-0.60;53.60;;;;;;5043254;28;20229;-63
2024/01/15 04:44:15;;;;;;;7.70;6.80;;;-0.60;54.10;;;;;;5044725;28;20241;-63
2024/01/15 04:46:43;;;;;;;7.97;6.03;;;-0.60;53.60;;;;;;5044092;28;20230;-62
2024/01/15 04:49:10;;;;;;;9.27;6.93;;;-0.60;53.40;;;;;;5043478;28;20296;-62
2024/01/15 04:51:36;;;;;;;9.17;7.33;;;-0.60;53.80;;;;;;5043064;28;20621;-62
2024/01/15 04:54:03;;;;;;;7.73;6.77;;;-0.70;53.80;;;;;;5039590;28;20258;-63
2024/01/15 04:56:29;;;;;;;9.53;7.20;;;-0.80;53.90;;;;;;5046052;28;20275;-62
2024/01/15 04:58:56;;;;;;;9.20;6.70;;;-0.70;53.90;;;;;;5047935;28;20205;-62
2024/01/15 05:01:22;;;;;;;10.13;7.37;;;-0.50;53.70;;;;;;5039990;28;20606;-62
2024/01/15 05:03:49;;;;;;;9.83;7.27;;;-0.60;53.70;;;;;;5042420;28;20249;-62
2024/01/15 05:06:15;;;;;;;8.60;7.03;;;-0.60;54.20;;;;;;5043131;28;20217;-61
2024/01/15 05:08:42;;;;;;;8.73;7.20;;;-0.50;54.10;;;;;;5038400;28;20233;-62
2024/01/15 05:11:08;;;;;;;9.47;7.37;;;-0.60;54.10;;;;;;5043370;28;20644;-62
2024/01/15 05:13:35;;;;;;;8.53;6.93;;;-0.50;53.80;;;;;;5042276;28;20233;-62
2024/01/15 05:16:02;;;;;;;7.27;5.90;;;-0.50;53.80;;;;;;5047379;28;20234;-63
2024/01/15 05:18:28;;;;;;;8.17;6.40;;;-0.50;53.70;;;;;;5046553;28;20206;-63
2024/01/15 05:20:55;;;;;;;12.97;7.90;;;-0.50;53.70;;;;;;5047428;28;20714;-62
2024/01/15 05:23:21;;;;;;;9.97;7.10;;;-0.60;53.90;;;;;;5044563;28;20206;-62
2024/01/15 05:25:47;;;;;;;7.67;6.50;;;-0.50;54.00;;;;;;5038563;28;20678;-61
2024/01/15 05:28:14;;;;;;;9.63;7.00;;;-0.40;53.50;;;;;;5047202;28;20238;-63
2024/01/15 05:30:40;;;;;;;8.80;7.13;;;-0.50;53.80;;;;;;5046635;28;20230;-61
2024/01/15 05:33:08;;;;;;;8.30;6.33;;;-0.70;54.30;;;;;;5039415;28;20289;-62
2024/01/15 05:35:34;;;;;;;8.30;6.37;;;-0.60;54.20;;;;;;5040242;28;20236;-62
2024/01/15 05:38:01;;;;;;;7.13;6.43;;;-0.50;53.60;;;;;;5039255;28;20214;-63
2024/01/15 05:40:27;;;;;;;8.37;6.90;;;-0.50;53.70;;;;;;5039273;28;20680;-63
2024/01/15 05:42:54;;;;;;;8.73;6.50;;;-0.60;54.20;;;;;;5039410;28;20311;-62
2024/01/15 05:45:20;;;;;;;8.73;6.50;;;-0.50;54.30;;;;;;5048241;28;20245;-63
2024/01/15 05:47:46;;;;;;;7.83;6.37;;;-0.50;53.60;;;;;;5045884;28;20210;-62
2024/01/15 05:50:13;;;;;;;8.97;6.90;;;-0.40;53.40;;;;;;5046997;28;20214;-62
2024/01/15 05:52:40;;;;;;;7.00;6.23;;;-0.50;53.40;;;;;;5045566;28;20210;-61
2024/01/15 05:55:06;;;;;;;10.00;6.17;;;-0.50;53.10;;;;;;5048888;28;20284;-63
2024/01/15 05:57:32;;;;;;;11.30;6.20;;;-0.50;53.50;;;;;;5042172;28;20708;-63
2024/01/15 05:59:59;;;;;;;7.73;6.27;;;-0.50;53.00;;;;;;5050089;28;20226;-62
2024/01/15 06:02:25;;;;;;;8.60;6.90;;;-0.50;53.50;;;;;;5046709;28;20644;-63
2024/01/15 06:04:52;;;;;;;8.43;6.63;;;-0.50;53.30;;;;;;5044752;28;20202;-62
2024/01/15 06:07:18;;;;;;;6.63;5.83;;;-0.50;53.50;;;;;;5042015;28;20242;-63
2024/01/15 06:09:45;;;;;;;8.17;6.73;;;-0.50;53.20;;;;;;5034147;28;20241;-63
2024/01/15 06:12:12;;;;;;;7.20;6.37;;;-0.50;53.40;;;;;;5047026;28;20230;-63
2024/01/15 06:14:38;;;;;;;7.37;5.87;;;-0.50;53.10;;;;;;5042678;28;20623;-62
2024/01/15 06:17:05;;;;;;;6.97;6.20;;;-0.60;52.90;;;;;;5049354;28;20791;-61
2024/01/15 06:19:31;;;;;;;8.03;6.77;;;-0.50;52.80;;;;;;5049841;28;20234;-63
2024/01/15 06:21:58;;;;;;;8.60;6.53;;;-0.50;53.10;;;;;;5053077;28;20729;-60
2024/01/15 06:24:24;;;;;;;8.07;6.23;;;-0.40;52.80;;;;;;5044882;28;20271;-62
2024/01/15 06:26:51;;;;;;;6.90;6.10;;;-0.50;52.50;;;;;;5040834;28;20225;-62
2024/01/15 06:29:17;;;;;;;7.13;5.80;;;-0.50;52.60;;;;;;5049796;28;20259;-63
2024/01/15 06:31:44;;;;;;;8.27;5.87;;;-0.40;52.70;;;;;;5047667;28;20233;-61
2024/01/15 06:34:10;;;;;;;8.87;6.23;;;-0.40;52.40;;;;;;5047237;28;20210;-63
2024/01/15 06:36:37;;;;;;;7.33;6.00;;;-0.40;52.30;;;;;;5045016;28;20261;-62
2024/01/15 06:39:04;;;;;;;7.97;6.07;;;-0.50;52.60;;;;;;5044594;28;20677;-63
2024/01/15 06:41:31;;;;;;;7.50;6.30;;;-0.40;52.60;;;;;;5044967;28;20227;-63
2024/01/15 06:43:58;;;;;;;6.97;5.97;;;-0.30;52.60;;;;;;5042407;28;20249;-63
2024/01/15 06:46:25;;;;;;;9.97;6.80;;;-0.20;52.10;;;;;;5040087;28;20328;-62
2024/01/15 06:48:51;;;;;;;6.47;5.20;;;-0.20;52.10;;;;;;5039464;28;20492;-62
2024/01/15 06:51:18;;;;;;;7.67;6.10;;;-0.30;52.30;;;;;;5044336;28;20664;-62
2024/01/15 06:53:44;;;;;;;8.07;5.57;;;-0.20;52.90;;;;;;5051187;28;20296;-63
2024/01/15 06:56:11;;;;;;;9.07;6.30;;;-0.30;51.90;;;;;;5037239;28;20256;-63
2024/01/15 06:58:37;;;;;;;8.57;6.27;;;-0.30;53.30;;;;;;5043818;28;20584;-62
2024/01/15 07:01:04;;;;;;;10.83;6.73;;;-0.40;52.30;;;;;;5040578;28;20218;-63
2024/01/15 07:03:31;;;;;;;6.67;5.97;;;-0.40;52.60;;;;;;5040524;28;20316;-62
2024/01/15 07:05:57;;;;;;;8.23;6.50;;;-0.30;52.50;;;;;;5046153;28;20265;-62
2024/01/15 07:08:24;;;;;;;8.47;5.97;;;-0.40;52.20;;;;;;5045261;28;20223;-62
2024/01/15 07:10:50;;;;;;;8.13;6.50;;;-0.40;52.30;;;;;;5042237;28;20646;-63
2024/01/15 07:13:17;;;;;;;7.00;6.30;;;-0.40;52.60;;;;;;5044151;28;20264;-62
2024/01/15 07:15:44;;;;;;;7.43;5.77;;;-0.30;52.60;;;;;;5044087;28;20326;-62
2024/01/15 07:18:10;;;;;;;8.40;6.83;;;-0.40;53.00;;;;;;5045557;28;20241;-59
2024/01/15 07:20:36;;;;;;;7.77;6.53;;;-0.40;52.60;;;;;;5037372;28;20230;-59
2024/01/15 07:23:04;;;;;;;6.83;6.10;;;-0.40;52.90;;;;;;5043718;28;20678;-60
2024/01/15 07:25:30;;;;;;;7.70;6.10;;;-0.30;52.60;;;;;;5037050;28;20218;-59
2024/01/15 07:27:57;;;;;;;8.03;6.90;;;-0.20;52.80;;;;;;5032933;28;20233;-58
2024/01/15 07:30:23;;;;;;;8.67;6.77;;;-0.20;52.70;;;;;;5045563;28;20628;-59
2024/01/15 07:32:50;;;;;;;7.87;6.47;;;-0.10;52.40;;;;;;5039989;28;20205;-58
2024/01/15 07:35:16;;;;;;;9.30;6.93;;;-0.10;53.00;;;;;;5043293;28;20254;-58
2024/01/15 07:37:43;;;;;;;7.77;6.33;;;-0.10;52.50;;;;;;5034775;28;20206;-56
2024/01/15 07:40:10;;;;;;;7.43;6.40;;;-0.20;53.00;;;;;;5041671;28;20592;-58
2024/01/15 07:42:38;;;;;;;7.13;6.33;;;-0.20;53.40;;;;;;5037930;28;20225;-57
2024/01/15 07:45:04;;;;;;;8.93;6.63;;;-0.20;53.90;;;;;;5034962;28;20577;-64
2024/01/15 07:47:31;;;;;;;10.17;7.00;;;-0.20;53.80;;;;;;5040959;28;20236;-56
2024/01/15 07:49:57;;;;;;;8.77;6.40;;;-0.20;53.80;;;;;;5045712;28;20214;-56
2024/01/15 07:52:23;;;;;;;8.03;6.53;;;-0.20;54.80;;;;;;5037154;28;20207;-58
2024/01/15 07:54:50;;;;;;;9.30;6.83;;;-0.20;54.40;;;;;;5040817;28;20652;-58
2024/01/15 07:57:16;;;;;;;10.70;7.17;;;-0.20;54.10;;;;;;5040136;28;20485;-56
2024/01/15 07:59:43;;;;;;;7.13;6.00;;;-0.20;53.90;;;;;;5046457;28;20241;-59
2024/01/15 08:02:09;;;;;;;8.37;6.53;;;-0.20;54.40;;;;;;5035370;28;20222;-57
2024/01/15 08:04:36;;;;;;;9.07;6.73;;;-0.10;54.40;;;;;;5045190;28;20673;-56
2024/01/15 08:07:03;;;;;;;8.13;6.20;;;-0.20;54.70;;;;;;5043069;28;20269;-61
2024/01/15 08:09:30;;;;;;;8.47;6.73;;;-0.20;54.80;;;;;;5043395;28;20708;-59
2024/01/15 08:11:56;;;;;;;8.17;7.33;;;-0.10;54.50;;;;;;5048581;28;20206;-61
2024/01/15 08:14:23;;;;;;;10.73;6.87;;;-0.10;54.40;;;;;;5050546;28;20206;-60
2024/01/15 08:16:49;;;;;;;9.23;7.30;;;-0.20;54.80;;;;;;5050970;28;20234;-60
2024/01/15 08:19:16;;;;;;;10.17;6.63;;;-0.10;54.40;;;;;;5043000;28;20257;-60
2024/01/15 08:21:42;;;;;;;8.53;6.40;;;0.00;54.50;;;;;;5045252;28;20275;-59
2024/01/15 08:24:09;;;;;;;7.67;6.53;;;-0.10;53.90;;;;;;5036908;28;20206;-60
2024/01/15 08:26:35;;;;;;;7.70;6.47;;;0.00;54.00;;;;;;5040646;28;20736;-61
2024/01/15 08:29:02;;;;;;;8.67;7.23;;;-0.10;54.00;;;;;;5031157;28;20206;-60
2024/01/15 08:31:28;;;;;;;7.23;6.20;;;-0.10;53.90;;;;;;5042274;28;20229;-58
2024/01/15 08:33:55;;;;;;;7.40;6.07;;;-0.10;53.50;;;;;;5042445;28;20217;-57
2024/01/15 08:36:21;;;;;;;7.30;6.20;;;-0.10;53.30;;;;;;5034218;28;20228;-58
2024/01/15 08:38:48;;;;;;;9.27;6.80;;;-0.10;53.30;;;;;;5035376;28;20237;-60
2024/01/15 08:41:14;;;;;;;6.53;5.37;;;-0.10;53.20;;;;;;5035147;28;20731;-60
2024/01/15 08:43:41;;;;;;;7.70;5.53;;;-0.10;53.00;;;;;;5041769;28;20263;-60
2024/01/15 08:46:07;;;;;;;7.07;6.03;;;-0.10;53.00;;;;;;5034813;28;20250;-59
2024/01/15 08:48:34;;;;;;;8.30;5.90;;;0.00;52.20;;;;;;5042988;28;20202;-60
2024/01/15 08:51:00;;;;;;;9.97;6.63;;;-0.10;52.50;;;;;;5038902;28;20302;-60
2024/01/15 08:53:27;;;;;;;8.47;6.23;;;0.00;53.00;;;;;;5042145;28;20245;-59
2024/01/15 08:55:54;;;;;;;7.03;5.70;;;0.00;53.10;;;;;;5040762;28;20312;-58
2024/01/15 08:58:20;;;;;;;8.77;6.30;;;0.10;53.00;;;;;;5039926;28;20241;-62
2024/01/15 09:00:47;;;;;;;9.53;6.13;;;0.00;53.10;;;;;;5039611;28;20207;-59
2024/01/15 09:03:14;;;;;;;7.60;6.77;;;-0.10;53.40;;;;;;5043543;28;20226;-60
2024/01/15 09:05:40;;;;;;;9.77;7.00;;;0.00;53.50;;;;;;5044352;28;20774;-60
2024/01/15 09:08:10;;;;;;;8.40;6.50;;;0.00;53.90;;;;;;5037449;28;20210;-62
2024/01/15 09:10:37;;;;;;;8.70;6.37;;;0.00;53.90;;;;;;5037890;28;20289;-58
2024/01/15 09:13:04;;;;;;;8.13;6.60;;;0.00;53.70;;;;;;5038622;28;20652;-61
2024/01/15 09:15:31;;;;;;;7.57;6.50;;;0.00;53.80;;;;;;5033393;28;20704;-61
2024/01/15 09:17:58;;;;;;;9.20;6.83;;;0.10;53.40;;;;;;5034207;28;20203;-61
2024/01/15 09:20:25;;;;;;;8.63;6.67;;;-0.10;53.70;;;;;;5042508;28;20203;-59
2024/01/15 09:22:52;;;;;;;7.80;6.50;;;0.10;53.70;;;;;;5037573;28;20301;-60
2024/01/15 09:25:18;;;;;;;9.07;6.50;;;0.10;53.60;;;;;;5018843;28;22470;-63
2024/01/15 09:27:45;;;;;;;7.60;6.40;;;0.10;53.60;;;;;;5044572;28;20304;-60
2024/01/15 09:30:11;;;;;;;8.73;6.47;;;0.20;53.20;;;;;;5038161;28;20237;-58
2024/01/15 09:32:38;;;;;;;6.97;5.83;;;0.20;53.30;;;;;;5042782;28;20249;-59
2024/01/15 09:35:04;;;;;;;9.00;6.33;;;0.20;52.80;;;;;;5038537;28;20805;-63
2024/01/15 09:37:31;;;;;;;9.30;6.30;;;0.40;53.40;;;;;;5035060;28;20738;-59
2024/01/15 09:39:57;;;;;;;7.53;6.23;;;0.40;52.40;;;;;;5041279;28;20240;-60
2024/01/15 09:42:24;;;;;;;7.00;6.03;;;0.40;51.50;;;;;;5051076;28;20222;-60
2024/01/15 09:44:50;;;;;;;7.10;5.90;;;0.40;51.60;;;;;;5043892;28;20735;-57
2024/01/15 09:47:17;;;;;;;7.77;6.33;;;0.30;51.90;;;;;;5040028;28;20210;-58
2024/01/15 09:49:43;;;;;;;8.20;6.50;;;0.40;51.80;;;;;;5041781;28;20241;-59
2024/01/15 09:52:10;;;;;;;6.60;5.83;;;0.50;51.50;;;;;;5046995;28;20214;-58
2024/01/15 09:54:36;;;;;;;7.30;5.97;;;0.50;51.80;;;;;;5042695;28;20221;-58
2024/01/15 09:57:03;;;;;;;6.23;5.50;;;0.60;51.10;;;;;;5042054;28;20236;-59
2024/01/15 09:59:29;;;;;;;5.40;4.90;;;0.50;51.00;;;;;;5034131;28;20563;-58
2024/01/15 10:01:56;;;;;;;7.07;6.07;;;0.40;50.90;;;;;;5044863;28;20215;-59
2024/01/15 10:04:23;;;;;;;7.67;5.07;;;0.40;50.90;;;;;;5038883;28;20297;-56
2024/01/15 10:06:49;;;;;;;6.60;5.17;;;0.60;51.10;;;;;;5044261;28;20315;-59
2024/01/15 10:09:16;;;;;;;7.40;5.87;;;0.60;51.10;;;;;;5041313;28;20326;-59
2024/01/15 10:11:42;;;;;;;5.60;5.07;;;0.70;50.60;;;;;;5045093;28;20257;-60
2024/01/15 10:14:09;;;;;;;5.73;5.10;;;0.70;50.40;;;;;;5042505;28;20199;-58
2024/01/15 10:16:35;;;;;;;4.97;4.53;;;0.60;49.80;;;;;;5042020;28;20226;-59
2024/01/15 10:19:02;;;;;;;5.63;5.00;;;0.70;49.70;;;;;;5041947;28;20230;-60
2024/01/15 10:21:29;;;;;;;5.23;4.73;;;0.70;50.90;;;;;;5049681;28;20262;-60
2024/01/15 10:23:55;;;;;;;7.40;5.63;;;0.70;50.20;;;;;;5047374;28;20260;-60
2024/01/15 10:26:22;;;;;;;6.57;4.90;;;0.70;50.60;;;;;;5037950;28;20223;-60
2024/01/15 10:28:48;;;;;;;5.60;5.10;;;0.70;50.50;;;;;;5039890;28;20225;-54
2024/01/15 10:31:15;;;;;;;6.20;5.00;;;0.70;50.70;;;;;;5038034;28;20294;-58
2024/01/15 10:33:41;;;;;;;6.00;4.73;;;0.70;50.70;;;;;;5040348;28;20230;-58
2024/01/15 10:36:08;;;;;;;5.80;4.77;;;0.60;50.90;;;;;;5045099;28;20232;-61
2024/01/15 10:38:34;;;;;;;7.63;5.10;;;0.80;50.20;;;;;;5039788;28;20650;-57
2024/01/15 10:41:01;;;;;;;6.23;4.70;;;0.80;50.80;;;;;;5048478;28;20245;-59
2024/01/15 10:43:27;;;;;;;6.23;4.80;;;0.90;50.40;;;;;;5048150;28;20235;-59
2024/01/15 10:45:54;;;;;;;5.67;5.07;;;0.80;49.90;;;;;;5045777;28;20263;-60
2024/01/15 10:48:20;;;;;;;4.93;4.43;;;1.00;50.20;;;;;;5037492;28;20247;-60
2024/01/15 10:50:47;;;;;;;5.17;4.50;;;1.10;49.70;;;;;;5037478;28;20211;-59
2024/01/15 10:53:13;;;;;;;6.80;4.73;;;1.10;50.00;;;;;;5039856;28;20230;-57
2024/01/15 10:55:40;;;;;;;5.60;4.73;;;1.00;49.50;;;;;;5048937;28;20723;-59
2024/01/15 10:58:07;;;;;;;7.53;5.23;;;1.00;49.40;;;;;;5040947;28;20665;-61
2024/01/15 11:00:33;;;;;;;5.77;4.33;;;1.00;49.90;;;;;;5038417;28;20207;-60
2024/01/15 11:03:00;;;;;;;4.77;4.17;;;1.20;50.40;;;;;;5038411;28;20264;-59
2024/01/15 11:05:26;;;;;;;5.70;5.10;;;1.30;48.90;;;;;;5036673;28;20705;-60
2024/01/15 11:07:52;;;;;;;5.60;4.90;;;1.30;49.60;;;;;;5045461;28;20213;-61
2024/01/15 11:10:18;;;;;;;5.80;5.13;;;1.40;49.70;;;;;;5047319;28;20615;-59
2024/01/15 11:12:45;;;;;;;5.80;4.87;;;1.40;49.60;;;;;;5046301;28;20208;-58
2024/01/15 11:15:11;;;;;;;5.07;4.63;;;1.40;49.70;;;;;;5043199;28;20721;-61
2024/01/15 11:17:38;;;;;;;6.87;5.13;;;1.30;50.20;;;;;;5038014;28;20283;-61
2024/01/15 11:20:05;;;;;;;6.13;4.90;;;1.40;50.10;;;;;;5041900;28;20582;-58
2024/01/15 11:22:31;;;;;;;5.87;4.73;;;1.40;50.30;;;;;;5045917;28;20241;-58
2024/01/15 11:24:58;;;;;;;6.77;4.90;;;1.50;50.80;;;;;;5040146;28;20680;-62
2024/01/15 11:27:24;;;;;;;5.93;4.97;;;1.40;50.60;;;;;;5037429;28;20297;-60
2024/01/15 11:29:51;;;;;;;6.13;4.60;;;1.50;50.40;;;;;;5039909;28;20611;-61
2024/01/15 11:32:19;;;;;;;5.77;4.57;;;1.40;50.40;;;;;;5043844;28;20229;-61
2024/01/15 11:34:45;;;;;;;5.07;4.50;;;1.30;50.30;;;;;;5039174;28;20563;-60
2024/01/15 11:37:13;;;;;;;5.37;4.53;;;1.20;50.60;;;;;;5037203;28;20260;-60
2024/01/15 11:39:39;;;;;;;4.80;4.33;;;1.30;50.20;;;;;;5040426;28;20210;-60
2024/01/15 11:42:06;;;;;;;6.27;5.10;;;1.10;50.90;;;;;;5033706;28;20228;-59
2024/01/15 11:44:33;;;;;;;5.67;5.00;;;1.00;51.00;;;;;;5040581;28;20715;-61
2024/01/15 11:47:00;;;;;;;5.67;4.67;;;1.70;50.00;;;;;;5040473;28;20226;-60
2024/01/15 11:49:26;;;;;;;5.87;4.53;;;2.40;47.40;;;;;;5039020;28;20211;-60
2024/01/15 11:51:53;;;;;;;4.77;4.03;;;3.10;45.70;;;;;;5044859;28;20206;-61
2024/01/15 11:54:19;;;;;;;5.43;3.87;;;3.20;45.20;;;;;;5044152;28;20198;-59
2024/01/15 11:56:46;;;;;;;6.00;4.33;;;3.70;43.70;;;;;;5051268;28;20249;-60
2024/01/15 11:59:12;;;;;;;4.87;4.07;;;3.70;43.10;;;;;;5045866;28;20556;-58
2024/01/15 12:01:39;;;;;;;5.07;4.17;;;3.80;43.40;;;;;;5040239;28;20204;-60
2024/01/15 12:04:06;;;;;;;6.07;4.53;;;3.50;42.90;;;;;;5041285;28;20280;-60
2024/01/15 12:06:32;;;;;;;4.33;3.87;;;2.70;44.90;;;;;;5041298;28;20292;-60
2024/01/15 12:08:59;;;;;;;4.20;3.80;;;2.50;45.90;;;;;;5045309;28;20204;-58
2024/01/15 12:11:25;;;;;;;4.03;3.63;;;2.50;45.50;;;;;;5044948;28;20241;-61
2024/01/15 12:13:53;;;;;;;5.83;4.00;;;2.30;45.10;;;;;;5043493;28;20209;-60
2024/01/15 12:16:20;;;;;;;4.00;3.60;;;2.50;45.30;;;;;;5043145;28;20254;-59
2024/01/15 12:18:46;;;;;;;5.33;3.97;;;2.50;45.20;;;;;;5041140;28;20589;-60
2024/01/15 12:21:13;;;;;;;4.13;3.73;;;3.30;43.50;;;;;;5046074;28;20221;-60
2024/01/15 12:23:39;;;;;;;3.73;3.27;;;3.50;43.40;;;;;;5045976;28;20549;-60
2024/01/15 12:26:06;;;;;;;4.67;3.90;;;3.80;42.40;;;;;;5034921;28;20219;-57
2024/01/15 12:28:32;;;;;;;7.07;4.40;;;3.60;44.70;;;;;;5036237;28;20257;-62
2024/01/15 12:31:00;;;;;;;4.57;3.83;;;4.00;42.80;;;;;;5039319;28;20208;-65
2024/01/15 12:33:27;;;;;;;5.53;4.27;;;4.20;43.80;;;;;;5040114;28;20209;-64
2024/01/15 12:35:53;;;;;;;4.60;4.10;;;4.30;42.50;;;;;;5041575;28;20705;-65
2024/01/15 12:38:20;;;;;;;14.80;6.47;;;4.20;41.70;;;;;;5032213;28;20241;-66
2024/01/15 12:40:47;;;;;;;7.03;3.83;;;4.10;47.80;;;;;;5030822;28;20337;-65
2024/01/15 12:43:13;;;;;;;4.77;3.63;;;4.10;58.10;;;;;;5036808;28;20284;-67